Mount Sherman, Kentucky
Current Conditions -  °F | °C
As of 11:35 AM on Friday 21 Nov 2014 (Local Time) from K6I2 Reporting Station
Clear Clear  
Wind Chill: 30°   Ceiling: Unl
Heat Index: 34°   Visibility: 10mi
Dew Point: 18°   Wind: 5mph
Humidity: 52%   Direction: 100°E
Pressure: 30.5"   Gusts: NA
Location:  37.45°N, 85.67°W
Report Text: K6I2 211635Z AUTO 10004KT 10SM CLR 01/M08 A3050 RMK AO2
Loading
Personal Weather Stations






























Interactive Weather Map New forecast layout! Learn more

10-Day Weather Forecast

Advertisements
Track Severe Weather on mobile